Main page
METAR-TAF:

METAR-TAF

Airports :

Norman Manley International Airport

Kingston, Jamaica

latitude: 17-56N, longitude: 076-47W, elevation: 3 m

Current weather observation

The report was made 33 minutes ago, at 22:00 UTC
Wind 10 kt from the Southeast
Temperature 27°C
Humidity 58%
Pressure 1013 hPa
Visibility 10 km or more
Few clouds at a height of 1800 ft
Broken clouds at a height of 3400 ft

METAR: MKJP 182200Z 13010KT 9999 FEW018 BKN034 27/18 Q1013

Time: 17:33 (22:33 UTC)

Forecast

The report was made 5 hours and 18 minutes ago, at 17:15 UTC
Forecast valid from 18 at 18 UTC to 19 at 18 UTC
Wind 12 kt from the Southeast
Visibility 10 km or more
Scattered clouds at a height of 1800 ft
Scattered clouds at a height of 3200 ft
Becoming
from 19 at 00 UTC to 19 at 02 UTC
Wind 5 kt from the North
Few clouds at a height of 2400 ft
Becoming
from 19 at 14 UTC to 19 at 16 UTC
Wind 13 kt from the Southeast

TAF: MKJP 181715Z 1818/1918 14012KT 9999 SCT018 SCT032 BECMG 1900/1902 35005KT FEW024 BECMG 1914/1916 14013KT

Weather observations and forecasts of more than 4000 airports (METAR and TAF reports).

The available stations are represented by yellow and red dots on the map.

Hover mouse over dot to see the name of the station.

Then click to see weather observations and forecasts.

To change the map : click on the green buttons with a black cross to zoom in, on the green button with a dash to zoom out, or on the green arrows for adjacent maps.


METAR-TAF: